createdAt,value
2023-03-13T00:00:33.114Z,987.79
2023-03-13T00:01:33.070Z,987.78
2023-03-13T00:02:33.152Z,987.76
2023-03-13T00:03:33.052Z,987.78
2023-03-13T00:04:33.112Z,987.79
2023-03-13T00:05:33.021Z,987.74
2023-03-13T00:06:33.051Z,987.76
2023-03-13T00:07:33.022Z,987.76
2023-03-13T00:08:33.026Z,987.71
2023-03-13T00:09:32.988Z,987.72
2023-03-13T00:10:32.963Z,987.67
2023-03-13T00:11:32.994Z,987.66
2023-03-13T00:12:33.154Z,987.64
2023-03-13T00:13:32.960Z,987.68
2023-03-13T00:14:32.924Z,987.63
2023-03-13T00:15:32.911Z,987.62
2023-03-13T00:16:32.942Z,987.59
2023-03-13T00:17:32.893Z,987.62
2023-03-13T00:18:32.920Z,987.61
2023-03-13T00:19:32.893Z,987.63
2023-03-13T00:20:32.871Z,987.60
2023-03-13T00:21:32.849Z,987.62
2023-03-13T00:22:34.503Z,987.58
2023-03-13T00:23:32.829Z,987.59
2023-03-13T00:24:32.833Z,987.50
2023-03-13T00:25:32.793Z,987.50
2023-03-13T00:26:32.794Z,987.48
2023-03-13T00:27:32.814Z,987.54
2023-03-13T00:28:32.960Z,987.43
2023-03-13T00:29:32.828Z,987.45
2023-03-13T00:30:32.826Z,987.49
2023-03-13T00:31:32.844Z,987.50
2023-03-13T00:32:32.923Z,987.45
2023-03-13T00:33:32.709Z,987.39
2023-03-13T00:34:32.713Z,987.46
2023-03-13T00:35:32.768Z,987.40
2023-03-13T00:36:32.683Z,987.38
2023-03-13T00:37:32.718Z,987.37
2023-03-13T00:38:32.669Z,987.31
2023-03-13T00:39:32.663Z,987.27
2023-03-13T00:40:32.658Z,987.29
2023-03-13T00:41:32.634Z,987.31
2023-03-13T00:42:32.605Z,987.27
2023-03-13T00:43:32.646Z,987.23
2023-03-13T00:44:32.615Z,987.20
2023-03-13T00:45:32.585Z,987.12
2023-03-13T00:46:32.624Z,987.14
2023-03-13T00:47:32.560Z,987.09
2023-03-13T00:48:32.536Z,987.09
2023-03-13T00:49:32.558Z,987.10
2023-03-13T00:50:32.532Z,987.08
2023-03-13T00:51:32.506Z,987.02
2023-03-13T00:52:32.500Z,987.05
2023-03-13T00:53:32.481Z,987.02
2023-03-13T00:54:32.506Z,987.01
2023-03-13T00:55:32.473Z,987.04
2023-03-13T00:56:32.461Z,987.04
2023-03-13T00:57:32.440Z,987.01
2023-03-13T00:58:32.426Z,987.03
2023-03-13T00:59:32.468Z,987.03
2023-03-13T01:00:32.408Z,987.01
2023-03-13T01:01:32.407Z,986.99
2023-03-13T01:02:32.547Z,986.94
2023-03-13T01:03:32.457Z,986.89
2023-03-13T01:04:32.382Z,986.91
2023-03-13T01:05:32.364Z,986.95
2023-03-13T01:06:32.362Z,986.91
2023-03-13T01:07:32.333Z,986.89
2023-03-13T01:08:32.330Z,986.89
2023-03-13T01:09:32.339Z,986.87
2023-03-13T01:10:32.312Z,986.89
2023-03-13T01:11:32.287Z,986.87
2023-03-13T01:12:32.307Z,986.89
2023-03-13T01:13:32.268Z,986.88
2023-03-13T01:14:32.258Z,986.84
2023-03-13T01:15:32.311Z,986.82
2023-03-13T01:16:32.277Z,986.81
2023-03-13T01:17:32.246Z,986.77
2023-03-13T01:18:32.231Z,986.76
2023-03-13T01:19:32.202Z,986.75
2023-03-13T01:20:32.213Z,986.72
2023-03-13T01:21:32.196Z,986.70
2023-03-13T01:22:32.199Z,986.62
2023-03-13T01:23:39.194Z,986.66
2023-03-13T01:24:32.152Z,986.64
2023-03-13T01:25:32.129Z,986.62
2023-03-13T01:26:32.118Z,986.58
2023-03-13T01:27:32.129Z,986.58
2023-03-13T01:28:32.139Z,986.60
2023-03-13T01:29:32.120Z,986.56
2023-03-13T01:30:32.081Z,986.51
2023-03-13T01:31:32.178Z,986.53
2023-03-13T01:32:32.186Z,986.50
2023-03-13T01:33:32.205Z,986.52
2023-03-13T01:34:32.037Z,986.49
2023-03-13T01:35:32.120Z,986.47
2023-03-13T01:36:32.023Z,986.44
2023-03-13T01:37:32.046Z,986.45
2023-03-13T01:38:32.013Z,986.35
2023-03-13T01:39:31.982Z,986.40
2023-03-13T01:40:31.982Z,986.40
2023-03-13T01:41:32.008Z,986.38
2023-03-13T01:42:31.962Z,986.38
2023-03-13T01:43:31.939Z,986.37
2023-03-13T01:44:31.931Z,986.33
2023-03-13T01:45:31.908Z,986.33
2023-03-13T01:46:31.981Z,986.34
2023-03-13T01:47:31.926Z,986.30
2023-03-13T01:48:31.882Z,986.35
2023-03-13T01:49:31.868Z,986.31
2023-03-13T01:50:31.853Z,986.32
2023-03-13T01:51:31.871Z,986.32
2023-03-13T01:52:31.871Z,986.25
2023-03-13T01:53:31.825Z,986.27
2023-03-13T01:54:31.812Z,986.23
2023-03-13T01:55:31.812Z,986.17
2023-03-13T01:56:31.815Z,986.14
2023-03-13T01:57:31.803Z,986.16
2023-03-13T01:58:31.765Z,986.06
2023-03-13T01:59:31.797Z,986.03
2023-03-13T02:00:31.741Z,986.03
2023-03-13T02:01:31.786Z,986.00
2023-03-13T02:02:31.778Z,985.98
2023-03-13T02:03:31.747Z,985.97
2023-03-13T02:04:31.732Z,985.92
2023-03-13T02:05:31.701Z,985.86
2023-03-13T02:06:31.682Z,985.89
2023-03-13T02:07:31.678Z,985.85
2023-03-13T02:08:31.663Z,985.79
2023-03-13T02:09:31.675Z,985.78
2023-03-13T02:10:31.682Z,985.76
2023-03-13T02:11:31.622Z,985.79
2023-03-13T02:12:31.632Z,985.73
2023-03-13T02:13:31.612Z,985.75
2023-03-13T02:14:31.602Z,985.66
2023-03-13T02:15:31.583Z,985.65
2023-03-13T02:16:31.688Z,985.66
2023-03-13T02:17:31.582Z,985.63
2023-03-13T02:18:31.550Z,985.61
2023-03-13T02:19:31.585Z,985.56
2023-03-13T02:20:31.527Z,985.58
2023-03-13T02:21:31.511Z,985.56
2023-03-13T02:22:31.519Z,985.53
2023-03-13T02:23:31.555Z,985.52
2023-03-13T02:24:31.506Z,985.49
2023-03-13T02:25:31.481Z,985.45
2023-03-13T02:26:31.500Z,985.46
2023-03-13T02:27:31.457Z,985.46
2023-03-13T02:28:31.446Z,985.45
2023-03-13T02:29:31.444Z,985.42
2023-03-13T02:30:31.464Z,985.36
2023-03-13T02:31:31.615Z,985.37
2023-03-13T02:32:31.457Z,985.35
2023-03-13T02:33:31.412Z,985.32
2023-03-13T02:34:31.372Z,985.30
2023-03-13T02:35:31.441Z,985.29
2023-03-13T02:36:31.355Z,985.24
2023-03-13T02:37:31.337Z,985.25
2023-03-13T02:38:31.339Z,985.20
2023-03-13T02:39:31.330Z,985.17
2023-03-13T02:40:31.312Z,985.17
2023-03-13T02:41:31.289Z,985.16
2023-03-13T02:42:31.277Z,985.16
2023-03-13T02:43:31.333Z,985.12
2023-03-13T02:44:31.285Z,985.12
2023-03-13T02:45:31.426Z,985.14
2023-03-13T02:46:31.266Z,985.09
2023-03-13T02:47:31.234Z,985.10
2023-03-13T02:48:31.236Z,985.03
2023-03-13T02:49:31.203Z,985.04
2023-03-13T02:50:31.210Z,985.05
2023-03-13T02:51:31.204Z,985.01
2023-03-13T02:52:31.224Z,984.97
2023-03-13T02:53:31.170Z,984.97
2023-03-13T02:54:31.170Z,984.88
2023-03-13T02:55:31.152Z,984.89
2023-03-13T02:56:31.140Z,984.84
2023-03-13T02:57:31.125Z,984.76
2023-03-13T02:58:33.567Z,984.75
2023-03-13T02:59:31.094Z,984.67
2023-03-13T03:00:31.163Z,984.75
2023-03-13T03:01:31.073Z,984.68
2023-03-13T03:02:31.106Z,984.64
2023-03-13T03:03:31.092Z,984.61
2023-03-13T03:04:31.044Z,984.57
2023-03-13T03:05:31.041Z,984.55
2023-03-13T03:06:31.016Z,984.56
2023-03-13T03:07:31.045Z,984.48
2023-03-13T03:08:30.998Z,984.51
2023-03-13T03:09:30.997Z,984.45
2023-03-13T03:10:30.972Z,984.42
2023-03-13T03:11:30.965Z,984.43
2023-03-13T03:12:30.986Z,984.32
2023-03-13T03:13:30.939Z,984.31
2023-03-13T03:14:30.947Z,984.33
2023-03-13T03:15:30.933Z,984.30
2023-03-13T03:16:31.027Z,984.22
2023-03-13T03:17:30.905Z,984.25
2023-03-13T03:18:32.620Z,984.12
2023-03-13T03:19:30.876Z,984.16
2023-03-13T03:20:30.873Z,984.16
2023-03-13T03:21:30.871Z,984.16
2023-03-13T03:22:30.877Z,984.11
2023-03-13T03:23:30.841Z,984.06
2023-03-13T03:24:30.832Z,984.04
2023-03-13T03:25:30.824Z,984.07
2023-03-13T03:26:30.817Z,984.03
2023-03-13T03:27:30.781Z,983.95
2023-03-13T03:28:30.777Z,983.95
2023-03-13T03:29:30.777Z,983.91
2023-03-13T03:30:30.780Z,983.82
2023-03-13T03:31:30.777Z,983.78
2023-03-13T03:32:30.807Z,983.75
2023-03-13T03:33:30.714Z,983.72
2023-03-13T03:34:30.721Z,983.73
2023-03-13T03:35:30.755Z,983.65
2023-03-13T03:36:30.681Z,983.70
2023-03-13T03:37:30.688Z,983.67
2023-03-13T03:38:30.662Z,983.67
2023-03-13T03:39:30.670Z,983.68
2023-03-13T03:40:30.657Z,983.67
2023-03-13T03:41:30.631Z,983.64
2023-03-13T03:42:30.630Z,983.57
2023-03-13T03:43:30.619Z,983.60
2023-03-13T03:44:30.598Z,983.54
2023-03-13T03:45:30.647Z,983.49
2023-03-13T03:46:30.574Z,983.48
2023-03-13T03:47:30.692Z,983.46
2023-03-13T03:48:30.550Z,983.43
2023-03-13T03:49:30.539Z,983.36
2023-03-13T03:50:30.544Z,983.35
2023-03-13T03:51:30.517Z,983.42
2023-03-13T03:52:30.496Z,983.34
2023-03-13T03:53:30.512Z,983.27
2023-03-13T03:54:30.487Z,983.20
2023-03-13T03:55:30.514Z,983.14
2023-03-13T03:56:30.481Z,983.13
2023-03-13T03:57:30.489Z,983.12
2023-03-13T03:58:30.442Z,983.13
2023-03-13T03:59:30.424Z,983.13
2023-03-13T04:00:30.436Z,983.14
2023-03-13T04:01:30.402Z,983.09
2023-03-13T04:02:30.472Z,983.10
2023-03-13T04:03:30.524Z,983.12
2023-03-13T04:04:30.372Z,983.10
2023-03-13T04:05:30.361Z,983.07
2023-03-13T04:06:30.350Z,983.03
2023-03-13T04:07:30.410Z,983.01
2023-03-13T04:08:30.348Z,982.96
2023-03-13T04:09:32.033Z,983.01
2023-03-13T04:10:30.308Z,982.88
2023-03-13T04:11:30.338Z,982.86
2023-03-13T04:12:30.299Z,982.88
2023-03-13T04:13:30.305Z,982.83
2023-03-13T04:14:30.267Z,982.82
2023-03-13T04:15:30.281Z,982.79
2023-03-13T04:16:30.316Z,982.73
2023-03-13T04:17:30.227Z,982.68
2023-03-13T04:18:30.227Z,982.70
2023-03-13T04:19:30.212Z,982.63
2023-03-13T04:20:30.225Z,982.63
2023-03-13T04:21:30.188Z,982.54
2023-03-13T04:22:30.173Z,982.53
2023-03-13T04:23:30.195Z,982.51
2023-03-13T04:24:30.155Z,982.45
2023-03-13T04:25:30.140Z,982.46
2023-03-13T04:26:30.132Z,982.42
2023-03-13T04:27:30.139Z,982.29
2023-03-13T04:28:30.136Z,982.31
2023-03-13T04:29:30.112Z,982.25
2023-03-13T04:30:30.136Z,982.21
2023-03-13T04:31:30.104Z,982.17
2023-03-13T04:32:30.115Z,982.25
2023-03-13T04:33:30.071Z,982.24
2023-03-13T04:34:30.041Z,982.30
2023-03-13T04:35:30.088Z,982.35
2023-03-13T04:36:30.025Z,982.42
2023-03-13T04:37:30.018Z,982.49
2023-03-13T04:38:30.034Z,982.55
2023-03-13T04:39:32.668Z,982.54
2023-03-13T04:40:29.986Z,982.57
2023-03-13T04:41:29.972Z,982.59
2023-03-13T04:42:29.988Z,982.58
2023-03-13T04:43:29.994Z,982.55
2023-03-13T04:44:29.932Z,982.54
2023-03-13T04:45:29.922Z,982.54
2023-03-13T04:46:29.978Z,982.40
2023-03-13T04:47:29.904Z,982.34
2023-03-13T04:48:29.906Z,982.35
2023-03-13T04:49:29.876Z,982.34
2023-03-13T04:50:29.862Z,982.31
2023-03-13T04:51:29.858Z,982.29
2023-03-13T04:52:29.877Z,982.35
2023-03-13T04:53:29.849Z,982.36
2023-03-13T04:54:29.837Z,982.37
2023-03-13T04:55:29.807Z,982.40
2023-03-13T04:56:42.708Z,982.41
2023-03-13T04:57:30.811Z,982.41
2023-03-13T04:58:29.775Z,982.37
2023-03-13T04:59:29.817Z,982.32
2023-03-13T05:00:29.776Z,982.36
2023-03-13T05:01:29.808Z,982.33
2023-03-13T05:02:29.754Z,982.32
2023-03-13T05:03:29.738Z,982.28
2023-03-13T05:04:29.750Z,982.30
2023-03-13T05:05:29.802Z,982.29
2023-03-13T05:06:29.689Z,982.26
2023-03-13T05:07:29.674Z,982.23
2023-03-13T05:08:29.686Z,982.23
2023-03-13T05:09:29.653Z,982.10
2023-03-13T05:10:29.659Z,982.11
2023-03-13T05:11:29.640Z,982.00
2023-03-13T05:12:29.617Z,982.06
2023-03-13T05:13:29.625Z,981.89
2023-03-13T05:14:29.600Z,981.94
2023-03-13T05:15:29.612Z,981.99
2023-03-13T05:16:29.644Z,981.91
2023-03-13T05:17:29.594Z,981.96
2023-03-13T05:18:29.587Z,981.91
2023-03-13T05:19:29.558Z,981.95
2023-03-13T05:20:29.550Z,982.01
2023-03-13T05:21:29.599Z,982.01
2023-03-13T05:22:29.529Z,982.09
2023-03-13T05:23:29.556Z,982.00
2023-03-13T05:24:29.502Z,982.01
2023-03-13T05:25:29.554Z,982.06
2023-03-13T05:26:29.494Z,982.02
2023-03-13T05:27:29.505Z,982.06
2023-03-13T05:28:29.454Z,982.09
2023-03-13T05:29:29.530Z,982.11
2023-03-13T05:30:29.467Z,982.12
2023-03-13T05:31:29.612Z,982.05
2023-03-13T05:32:29.466Z,982.09
2023-03-13T05:33:29.396Z,982.06
2023-03-13T05:34:29.384Z,982.11
2023-03-13T05:35:29.454Z,982.02
2023-03-13T05:36:29.378Z,982.06
2023-03-13T05:37:29.441Z,982.14
2023-03-13T05:38:29.341Z,982.04
2023-03-13T05:39:29.391Z,982.07
2023-03-13T05:40:29.337Z,982.02
2023-03-13T05:41:29.306Z,981.97
2023-03-13T05:42:29.342Z,981.98
2023-03-13T05:43:29.330Z,981.99
2023-03-13T05:44:29.296Z,982.04
2023-03-13T05:45:29.278Z,981.92
2023-03-13T05:46:29.344Z,981.92
2023-03-13T05:47:29.262Z,981.92
2023-03-13T05:48:29.308Z,981.81
2023-03-13T05:49:29.327Z,981.88
2023-03-13T05:50:29.254Z,981.90
2023-03-13T05:51:29.221Z,981.93
2023-03-13T05:52:29.176Z,981.91
2023-03-13T05:53:29.166Z,981.84
2023-03-13T05:54:29.168Z,981.86
2023-03-13T05:55:29.146Z,981.75
2023-03-13T05:56:29.152Z,981.68
2023-03-13T05:57:29.203Z,981.77
2023-03-13T05:58:29.121Z,981.83
2023-03-13T05:59:29.128Z,981.95
2023-03-13T06:00:29.119Z,981.86
2023-03-13T06:01:29.095Z,981.88
2023-03-13T06:02:29.077Z,981.89
2023-03-13T06:03:29.221Z,981.84
2023-03-13T06:04:29.200Z,981.95
2023-03-13T06:05:29.173Z,981.92
2023-03-13T06:06:29.017Z,981.87
2023-03-13T06:07:29.033Z,981.83
2023-03-13T06:08:29.028Z,981.82
2023-03-13T06:09:29.005Z,981.77
2023-03-13T06:10:28.988Z,981.78
2023-03-13T06:11:28.992Z,981.67
2023-03-13T06:12:28.977Z,981.66
2023-03-13T06:13:28.934Z,981.71
2023-03-13T06:14:28.953Z,981.66
2023-03-13T06:15:28.910Z,981.71
2023-03-13T06:16:28.976Z,981.56
2023-03-13T06:17:28.897Z,981.53
2023-03-13T06:18:28.880Z,981.61
2023-03-13T06:19:28.940Z,981.49
2023-03-13T06:20:28.853Z,981.56
2023-03-13T06:21:28.857Z,981.60
2023-03-13T06:22:28.830Z,981.65
2023-03-13T06:23:28.849Z,981.59
2023-03-13T06:24:28.830Z,981.65
2023-03-13T06:25:28.826Z,981.53
2023-03-13T06:26:28.798Z,981.58
2023-03-13T06:27:28.788Z,981.63
2023-03-13T06:28:28.797Z,981.74
2023-03-13T06:29:28.800Z,981.69
2023-03-13T06:30:28.783Z,981.73
2023-03-13T06:31:28.759Z,981.78
2023-03-13T06:32:29.054Z,981.70
2023-03-13T06:33:28.839Z,981.76
2023-03-13T06:34:28.709Z,981.67
2023-03-13T06:35:28.747Z,981.74
2023-03-13T06:36:28.754Z,981.77
2023-03-13T06:37:28.681Z,981.62
2023-03-13T06:38:28.698Z,981.64
2023-03-13T06:39:28.662Z,981.69
2023-03-13T06:40:28.671Z,981.65
2023-03-13T06:41:28.695Z,981.63
2023-03-13T06:42:28.638Z,981.62
2023-03-13T06:43:28.694Z,981.55
2023-03-13T06:44:28.600Z,981.55
2023-03-13T06:45:28.605Z,981.55
2023-03-13T06:46:28.637Z,981.60
2023-03-13T06:47:28.555Z,981.62
2023-03-13T06:48:28.565Z,981.64
2023-03-13T06:49:28.547Z,981.63
2023-03-13T06:50:28.576Z,981.58
2023-03-13T06:51:28.537Z,981.57
2023-03-13T06:52:37.779Z,981.67
2023-03-13T06:53:29.500Z,981.63
2023-03-13T06:54:28.489Z,981.64
2023-03-13T06:55:28.505Z,981.55
2023-03-13T06:56:28.470Z,981.64
2023-03-13T06:57:28.487Z,981.67
2023-03-13T06:58:32.600Z,981.57
2023-03-13T06:59:28.499Z,981.57
2023-03-13T07:00:28.585Z,981.67
2023-03-13T07:01:28.595Z,981.59
2023-03-13T07:02:28.445Z,981.52
2023-03-13T07:03:28.426Z,981.63
2023-03-13T07:04:28.389Z,981.54
2023-03-13T07:05:28.373Z,981.43
2023-03-13T07:06:28.405Z,981.52
2023-03-13T07:07:32.347Z,981.55
2023-03-13T07:08:28.339Z,981.52
2023-03-13T07:09:28.329Z,981.61
2023-03-13T07:10:28.340Z,981.63
2023-03-13T07:11:28.307Z,981.72
2023-03-13T07:12:28.314Z,981.62
2023-03-13T07:13:28.270Z,981.62
2023-03-13T07:14:28.273Z,981.64
2023-03-13T07:15:28.283Z,981.68
2023-03-13T07:16:28.284Z,981.73
2023-03-13T07:17:28.291Z,981.68
2023-03-13T07:18:28.259Z,981.68
2023-03-13T07:19:28.215Z,981.64
2023-03-13T07:20:28.314Z,981.60
2023-03-13T07:21:28.202Z,981.56
2023-03-13T07:22:28.214Z,981.58
2023-03-13T07:23:28.186Z,981.60
2023-03-13T07:24:35.224Z,981.64
2023-03-13T07:25:28.139Z,981.60
2023-03-13T07:26:28.195Z,981.69
2023-03-13T07:27:28.187Z,981.65
2023-03-13T07:28:28.145Z,981.68
2023-03-13T07:29:28.121Z,981.54
2023-03-13T07:30:28.127Z,981.69
2023-03-13T07:31:28.199Z,981.82
2023-03-13T07:32:28.149Z,981.79
2023-03-13T07:33:28.051Z,981.74
2023-03-13T07:34:28.070Z,981.71
2023-03-13T07:35:28.026Z,981.79
2023-03-13T07:36:28.134Z,981.82
2023-03-13T07:37:28.009Z,981.78
2023-03-13T07:38:28.003Z,981.72
2023-03-13T07:39:28.039Z,981.62
2023-03-13T07:40:28.072Z,981.63
2023-03-13T07:41:27.958Z,981.68
2023-03-13T07:42:27.960Z,981.67
2023-03-13T07:43:27.948Z,981.77
2023-03-13T07:44:27.932Z,981.78
2023-03-13T07:45:27.989Z,981.75
2023-03-13T07:46:27.897Z,981.83
2023-03-13T07:47:27.941Z,981.79
2023-03-13T07:48:27.903Z,981.78
2023-03-13T07:49:27.871Z,981.84
2023-03-13T07:50:28.190Z,981.81
2023-03-13T07:51:42.543Z,981.87
2023-03-13T07:52:28.854Z,981.77
2023-03-13T07:53:27.877Z,981.78
2023-03-13T07:54:27.820Z,981.90
2023-03-13T07:55:27.836Z,981.84
2023-03-13T07:56:27.785Z,981.80
2023-03-13T07:57:27.801Z,981.84
2023-03-13T07:58:27.785Z,981.72
2023-03-13T07:59:27.785Z,981.71
2023-03-13T08:00:27.744Z,981.84
2023-03-13T08:01:30.488Z,981.82
2023-03-13T08:02:27.866Z,981.83
2023-03-13T08:03:27.759Z,981.75
2023-03-13T08:04:27.724Z,981.65
2023-03-13T08:05:27.686Z,981.65
2023-03-13T08:06:27.726Z,981.66
2023-03-13T08:07:27.676Z,981.62
2023-03-13T08:08:27.670Z,981.60
2023-03-13T08:09:27.715Z,981.60
2023-03-13T08:10:27.708Z,981.61
2023-03-13T08:11:27.664Z,981.57
2023-03-13T08:12:27.609Z,981.65
2023-03-13T08:13:27.599Z,981.61
2023-03-13T08:14:27.601Z,981.64
2023-03-13T08:15:27.569Z,981.65
2023-03-13T08:16:27.709Z,981.61
2023-03-13T08:17:27.552Z,981.62
2023-03-13T08:18:27.558Z,981.67
2023-03-13T08:19:27.532Z,981.63
2023-03-13T08:20:27.515Z,981.70
2023-03-13T08:21:27.516Z,981.77
2023-03-13T08:22:27.504Z,981.62
2023-03-13T08:23:27.502Z,981.58
2023-03-13T08:24:27.509Z,981.71
2023-03-13T08:25:27.483Z,981.66
2023-03-13T08:26:27.458Z,981.67
2023-03-13T08:27:27.459Z,981.71
2023-03-13T08:28:27.450Z,981.68
2023-03-13T08:29:27.414Z,981.81
2023-03-13T08:30:27.550Z,981.75
2023-03-13T08:31:27.388Z,981.72
2023-03-13T08:32:27.429Z,981.79
2023-03-13T08:33:27.390Z,981.75
2023-03-13T08:34:27.422Z,981.73
2023-03-13T08:35:27.401Z,981.67
2023-03-13T08:36:27.353Z,981.69
2023-03-13T08:37:27.324Z,981.74
2023-03-13T08:38:27.315Z,981.79
2023-03-13T08:39:27.328Z,981.80
2023-03-13T08:40:27.298Z,981.81
2023-03-13T08:41:27.276Z,981.89
2023-03-13T08:42:27.271Z,981.90
2023-03-13T08:43:27.283Z,981.90
2023-03-13T08:44:27.276Z,981.84
2023-03-13T08:45:27.236Z,981.85
2023-03-13T08:46:27.323Z,981.80
2023-03-13T08:47:27.210Z,981.89
2023-03-13T08:48:27.226Z,981.86
2023-03-13T08:49:27.213Z,981.85
2023-03-13T08:50:27.183Z,981.87
2023-03-13T08:51:27.171Z,981.82
2023-03-13T08:52:27.164Z,981.75
2023-03-13T08:53:27.148Z,981.66
2023-03-13T08:54:27.171Z,981.62
2023-03-13T08:55:27.141Z,981.63
2023-03-13T08:56:27.142Z,981.61
2023-03-13T08:57:27.113Z,981.54
2023-03-13T08:58:27.111Z,981.50
2023-03-13T08:59:27.109Z,981.53
2023-03-13T09:00:27.093Z,981.53
2023-03-13T09:01:27.067Z,981.50
2023-03-13T09:02:27.132Z,981.43
2023-03-13T09:03:27.143Z,981.44
2023-03-13T09:04:27.029Z,981.43
2023-03-13T09:05:27.018Z,981.37
2023-03-13T09:06:27.009Z,981.23
2023-03-13T09:07:27.000Z,981.30
2023-03-13T09:08:27.013Z,981.21
2023-03-13T09:09:26.981Z,981.23
2023-03-13T09:10:26.958Z,981.26
2023-03-13T09:11:26.977Z,981.10
2023-03-13T09:12:31.204Z,981.07
2023-03-13T09:13:26.970Z,981.14
2023-03-13T09:14:26.924Z,981.11
2023-03-13T09:15:27.048Z,980.99
2023-03-13T09:16:26.898Z,980.90
2023-03-13T09:17:26.897Z,981.02
2023-03-13T09:18:26.932Z,980.92
2023-03-13T09:19:26.875Z,980.94
2023-03-13T09:20:26.885Z,980.84
2023-03-13T09:21:26.923Z,980.82
2023-03-13T09:22:26.829Z,980.87
2023-03-13T09:23:26.813Z,980.73
2023-03-13T09:24:26.903Z,980.73
2023-03-13T09:25:26.798Z,980.68
2023-03-13T09:26:26.804Z,980.70
2023-03-13T09:27:26.801Z,980.71
2023-03-13T09:28:26.763Z,980.62
2023-03-13T09:29:26.991Z,980.65
2023-03-13T09:30:26.746Z,980.65
2023-03-13T09:31:26.907Z,980.67
2023-03-13T09:32:26.806Z,980.58
2023-03-13T09:33:26.715Z,980.62
2023-03-13T09:34:26.698Z,980.65
2023-03-13T09:35:26.684Z,980.58
2023-03-13T09:36:26.746Z,980.58
2023-03-13T09:37:26.667Z,980.53
2023-03-13T09:38:26.650Z,980.40
2023-03-13T09:39:26.654Z,980.42
2023-03-13T09:40:26.637Z,980.47
2023-03-13T09:41:26.614Z,980.42
2023-03-13T09:42:26.639Z,980.47
2023-03-13T09:43:26.604Z,980.34
2023-03-13T09:44:26.625Z,980.45
2023-03-13T09:45:26.600Z,980.43
2023-03-13T09:46:26.671Z,980.33
2023-03-13T09:47:26.579Z,980.41
2023-03-13T09:48:26.565Z,980.44
2023-03-13T09:49:26.536Z,980.24
2023-03-13T09:50:26.541Z,980.33
2023-03-13T09:51:26.506Z,980.31
2023-03-13T09:52:26.545Z,980.20
2023-03-13T09:53:26.484Z,980.21
2023-03-13T09:54:26.480Z,980.22
2023-03-13T09:55:26.454Z,980.11
2023-03-13T09:56:26.447Z,980.13
2023-03-13T09:57:26.459Z,980.15
2023-03-13T09:58:26.431Z,980.20
2023-03-13T09:59:26.418Z,980.22
2023-03-13T10:00:26.427Z,980.30
2023-03-13T10:01:26.439Z,980.36
2023-03-13T10:02:26.420Z,980.26
2023-03-13T10:03:26.402Z,980.27
2023-03-13T10:04:26.445Z,980.31
2023-03-13T10:05:26.354Z,980.31
2023-03-13T10:06:26.365Z,980.37
2023-03-13T10:07:26.327Z,980.42
2023-03-13T10:08:26.338Z,980.43
2023-03-13T10:09:26.302Z,980.43
2023-03-13T10:10:26.306Z,980.41
2023-03-13T10:11:26.298Z,980.36
2023-03-13T10:12:26.268Z,980.39
2023-03-13T10:13:26.259Z,980.41
2023-03-13T10:14:26.244Z,980.49
2023-03-13T10:15:26.252Z,980.41
2023-03-13T10:16:26.253Z,980.37
2023-03-13T10:17:26.219Z,980.41
2023-03-13T10:18:26.199Z,980.56
2023-03-13T10:19:26.210Z,980.36
2023-03-13T10:20:26.210Z,980.34
2023-03-13T10:21:26.164Z,980.32
2023-03-13T10:22:26.187Z,980.31
2023-03-13T10:23:26.169Z,980.29
2023-03-13T10:24:26.168Z,980.33
2023-03-13T10:25:26.129Z,980.32
2023-03-13T10:26:26.131Z,980.34
2023-03-13T10:27:26.103Z,980.29
2023-03-13T10:28:26.117Z,980.38
2023-03-13T10:29:26.108Z,980.37
2023-03-13T10:30:26.064Z,980.37
2023-03-13T10:31:26.108Z,980.35
2023-03-13T10:32:26.096Z,980.34
2023-03-13T10:33:26.035Z,980.29
2023-03-13T10:34:26.041Z,980.26
2023-03-13T10:35:26.135Z,980.33
2023-03-13T10:36:26.000Z,980.28
2023-03-13T10:37:26.019Z,980.30
2023-03-13T10:38:25.985Z,980.32
2023-03-13T10:39:25.995Z,980.26
2023-03-13T10:40:25.993Z,980.21
2023-03-13T10:41:25.941Z,980.19
2023-03-13T10:42:25.933Z,980.23
2023-03-13T10:43:25.924Z,980.27
2023-03-13T10:44:25.922Z,980.28
2023-03-13T10:45:25.923Z,980.29
2023-03-13T10:46:25.924Z,980.15
2023-03-13T10:47:25.875Z,980.15
2023-03-13T10:48:25.870Z,980.33
2023-03-13T10:49:25.873Z,980.25
2023-03-13T10:50:25.883Z,980.23
2023-03-13T10:51:25.870Z,980.20
2023-03-13T10:52:25.882Z,980.06
2023-03-13T10:53:25.814Z,980.16
2023-03-13T10:54:25.823Z,980.23
2023-03-13T10:55:25.783Z,980.18
2023-03-13T10:56:25.782Z,980.19
2023-03-13T10:57:25.795Z,980.30
2023-03-13T10:58:25.766Z,980.23
2023-03-13T10:59:25.742Z,980.26
2023-03-13T11:00:25.738Z,980.24
2023-03-13T11:01:25.752Z,980.16
2023-03-13T11:02:25.772Z,980.20
2023-03-13T11:03:25.839Z,980.19
2023-03-13T11:04:25.685Z,980.18
2023-03-13T11:05:25.674Z,980.20
2023-03-13T11:06:25.660Z,980.23
2023-03-13T11:07:25.688Z,980.21
2023-03-13T11:08:25.718Z,980.18
2023-03-13T11:09:25.636Z,980.19
2023-03-13T11:10:25.616Z,980.24
2023-03-13T11:11:25.607Z,980.06
2023-03-13T11:12:25.595Z,980.21
2023-03-13T11:13:36.093Z,980.16
2023-03-13T11:14:26.647Z,980.20
2023-03-13T11:15:25.621Z,980.19
2023-03-13T11:16:25.616Z,980.17
2023-03-13T11:17:25.555Z,980.18
2023-03-13T11:18:25.532Z,980.11
2023-03-13T11:19:25.517Z,980.04
2023-03-13T11:20:25.528Z,980.03
2023-03-13T11:21:25.527Z,980.04
2023-03-13T11:22:25.528Z,980.04
2023-03-13T11:23:25.528Z,980.09
2023-03-13T11:24:25.484Z,980.04
2023-03-13T11:25:25.475Z,980.11
2023-03-13T11:26:25.480Z,980.08
2023-03-13T11:27:25.452Z,980.02
2023-03-13T11:28:25.453Z,979.93
2023-03-13T11:29:25.460Z,980.03
2023-03-13T11:30:25.419Z,980.00
2023-03-13T11:31:25.435Z,980.12
2023-03-13T11:32:25.424Z,980.01
2023-03-13T11:33:25.364Z,980.06
2023-03-13T11:34:25.362Z,979.98
2023-03-13T11:35:25.346Z,980.03
2023-03-13T11:36:25.374Z,979.99
2023-03-13T11:37:25.315Z,980.02
2023-03-13T11:38:25.321Z,979.98
2023-03-13T11:39:25.407Z,979.91
2023-03-13T11:40:25.291Z,979.83
2023-03-13T11:41:25.296Z,979.83
2023-03-13T11:42:25.282Z,979.82
2023-03-13T11:43:26.121Z,979.84
2023-03-13T11:44:25.262Z,979.85
2023-03-13T11:45:25.243Z,979.84
2023-03-13T11:46:25.417Z,979.78
2023-03-13T11:47:25.241Z,979.79
2023-03-13T11:48:25.243Z,979.76
2023-03-13T11:49:25.199Z,979.75
2023-03-13T11:50:25.175Z,979.75
2023-03-13T11:51:25.180Z,979.81
2023-03-13T11:52:25.153Z,979.79
2023-03-13T11:53:25.210Z,979.83
2023-03-13T11:54:25.166Z,979.71
2023-03-13T11:55:25.164Z,979.76
2023-03-13T11:56:25.105Z,979.72
2023-03-13T11:57:25.149Z,979.70
2023-03-13T11:58:25.170Z,979.78
2023-03-13T11:59:25.078Z,979.72
2023-03-13T12:00:25.059Z,979.89
2023-03-13T12:01:25.048Z,979.70
2023-03-13T12:02:25.174Z,979.81
2023-03-13T12:03:25.037Z,979.86
2023-03-13T12:04:25.028Z,979.77
2023-03-13T12:05:25.123Z,979.75
2023-03-13T12:06:28.201Z,979.73
2023-03-13T12:07:24.983Z,979.74
2023-03-13T12:08:24.994Z,979.77
2023-03-13T12:09:27.187Z,979.75
2023-03-13T12:10:24.978Z,979.69
2023-03-13T12:11:24.970Z,979.67
2023-03-13T12:12:24.932Z,979.63
2023-03-13T12:13:24.940Z,979.60
2023-03-13T12:14:24.925Z,979.58
2023-03-13T12:15:24.901Z,979.48
2023-03-13T12:16:24.930Z,979.56
2023-03-13T12:17:24.924Z,979.44
2023-03-13T12:18:24.887Z,979.40
2023-03-13T12:19:24.855Z,979.41
2023-03-13T12:20:24.841Z,979.36
2023-03-13T12:21:24.839Z,979.39
2023-03-13T12:22:24.823Z,979.26
2023-03-13T12:23:24.897Z,979.39
2023-03-13T12:24:24.812Z,979.31
2023-03-13T12:25:24.873Z,979.29
2023-03-13T12:26:24.869Z,979.38
2023-03-13T12:27:24.797Z,979.43
2023-03-13T12:28:24.834Z,979.31